sensor_id;sensor_type;location;lat;lon;timestamp;pressure;altitude;pressure_sealevel;temperature;humidity
80648;BME280;70012;0.000;0.000;2023-12-07T00:01:12;101026.78;;;0.30;91.10
80648;BME280;70012;0.000;0.000;2023-12-07T00:03:39;101027.28;;;0.34;91.19
80648;BME280;70012;0.000;0.000;2023-12-07T00:06:12;100976.13;;;0.09;90.80
80648;BME280;70012;0.000;0.000;2023-12-07T00:08:40;101030.28;;;0.39;90.80
80648;BME280;70012;0.000;0.000;2023-12-07T00:11:08;101014.81;;;0.32;90.90
80648;BME280;70012;0.000;0.000;2023-12-07T00:13:35;100999.69;;;0.23;91.17
80648;BME280;70012;0.000;0.000;2023-12-07T00:16:03;100997.66;;;0.25;91.20
80648;BME280;70012;0.000;0.000;2023-12-07T00:18:30;101022.91;;;0.41;90.63
80648;BME280;70012;0.000;0.000;2023-12-07T00:20:56;101016.19;;;0.37;90.58
80648;BME280;70012;0.000;0.000;2023-12-07T00:23:24;101019.03;;;0.35;90.70
80648;BME280;70012;0.000;0.000;2023-12-07T00:25:51;101026.78;;;0.46;90.52
80648;BME280;70012;0.000;0.000;2023-12-07T00:28:20;101042.75;;;0.48;90.26
80648;BME280;70012;0.000;0.000;2023-12-07T00:30:47;101044.44;;;0.49;90.38
80648;BME280;70012;0.000;0.000;2023-12-07T00:33:13;101042.75;;;0.48;90.28
80648;BME280;70012;0.000;0.000;2023-12-07T00:35:40;101042.59;;;0.50;90.44
80648;BME280;70012;0.000;0.000;2023-12-07T00:38:07;101036.69;;;0.46;91.34
80648;BME280;70012;0.000;0.000;2023-12-07T00:40:35;101039.38;;;0.46;91.50
80648;BME280;70012;0.000;0.000;2023-12-07T00:43:03;101045.47;;;0.48;91.52
80648;BME280;70012;0.000;0.000;2023-12-07T00:45:30;101041.06;;;0.47;91.71
80648;BME280;70012;0.000;0.000;2023-12-07T00:47:57;101051.53;;;0.50;91.94
80648;BME280;70012;0.000;0.000;2023-12-07T00:50:24;101045.63;;;0.46;91.76
80648;BME280;70012;0.000;0.000;2023-12-07T00:52:50;101039.38;;;0.46;91.54
80648;BME280;70012;0.000;0.000;2023-12-07T00:55:17;101048.84;;;0.50;91.40
80648;BME280;70012;0.000;0.000;2023-12-07T00:57:44;101057.75;;;0.51;91.02
80648;BME280;70012;0.000;0.000;2023-12-07T01:00:11;101040.06;;;0.48;90.86
80648;BME280;70012;0.000;0.000;2023-12-07T01:02:38;101052.34;;;0.51;91.81
80648;BME280;70012;0.000;0.000;2023-12-07T01:05:04;101057.56;;;0.52;91.98
80648;BME280;70012;0.000;0.000;2023-12-07T01:07:32;101054.88;;;0.52;91.65
80648;BME280;70012;0.000;0.000;2023-12-07T01:09:59;101049.31;;;0.54;92.29
80648;BME280;70012;0.000;0.000;2023-12-07T01:12:25;101050.16;;;0.54;91.74
80648;BME280;70012;0.000;0.000;2023-12-07T01:14:52;101053.53;;;0.56;92.18
80648;BME280;70012;0.000;0.000;2023-12-07T01:17:19;101053.53;;;0.56;92.12
80648;BME280;70012;0.000;0.000;2023-12-07T01:19:46;101053.53;;;0.56;91.87
80648;BME280;70012;0.000;0.000;2023-12-07T01:22:12;101048.47;;;0.53;90.99
80648;BME280;70012;0.000;0.000;2023-12-07T01:24:39;101050.50;;;0.51;90.96
80648;BME280;70012;0.000;0.000;2023-12-07T01:27:06;101044.59;;;0.47;90.98
80648;BME280;70012;0.000;0.000;2023-12-07T01:29:33;101048.97;;;0.48;90.98
80648;BME280;70012;0.000;0.000;2023-12-07T01:31:59;101044.78;;;0.46;91.15
80648;BME280;70012;0.000;0.000;2023-12-07T01:34:26;101049.16;;;0.47;91.38
80648;BME280;70012;0.000;0.000;2023-12-07T01:36:53;101053.22;;;0.43;90.96
80648;BME280;70012;0.000;0.000;2023-12-07T01:39:19;101044.44;;;0.41;90.93
80648;BME280;70012;0.000;0.000;2023-12-07T01:41:47;101053.53;;;0.40;90.82
80648;BME280;70012;0.000;0.000;2023-12-07T01:44:14;101053.88;;;0.37;90.71
80648;BME280;70012;0.000;0.000;2023-12-07T01:46:41;101061.28;;;0.35;90.62
80648;BME280;70012;0.000;0.000;2023-12-07T01:49:09;101060.09;;;0.29;90.48
80648;BME280;70012;0.000;0.000;2023-12-07T01:51:36;101060.78;;;0.23;90.49
80648;BME280;70012;0.000;0.000;2023-12-07T01:54:03;101059.59;;;0.17;90.59
80648;BME280;70012;0.000;0.000;2023-12-07T01:56:29;101064.63;;;0.12;90.48
80648;BME280;70012;0.000;0.000;2023-12-07T01:58:57;101062.28;;;0.09;89.73
80648;BME280;70012;0.000;0.000;2023-12-07T02:01:23;101063.28;;;-0.01;90.07
80648;BME280;70012;0.000;0.000;2023-12-07T02:03:50;101073.72;;;0.03;90.48
80648;BME280;70012;0.000;0.000;2023-12-07T02:06:17;101069.84;;;-0.03;90.80
80648;BME280;70012;0.000;0.000;2023-12-07T02:08:44;101067.31;;;-0.05;90.84
80648;BME280;70012;0.000;0.000;2023-12-07T02:11:11;101060.06;;;-0.12;90.90
80648;BME280;70012;0.000;0.000;2023-12-07T02:13:40;101070.66;;;-0.19;91.06
80648;BME280;70012;0.000;0.000;2023-12-07T02:16:15;101066.09;;;-0.27;91.16
80648;BME280;70012;0.000;0.000;2023-12-07T02:18:51;101046.03;;;-0.41;90.81
80648;BME280;70012;0.000;0.000;2023-12-07T02:21:29;101075.84;;;-0.26;90.78
80648;BME280;70012;0.000;0.000;2023-12-07T02:23:58;101091.97;;;-0.26;91.20
80648;BME280;70012;0.000;0.000;2023-12-07T02:26:35;101066.56;;;-0.40;90.85
80648;BME280;70012;0.000;0.000;2023-12-07T02:29:02;101067.03;;;-0.44;90.86
80648;BME280;70012;0.000;0.000;2023-12-07T02:31:29;101079.31;;;-0.42;90.62
80648;BME280;70012;0.000;0.000;2023-12-07T02:33:56;101097.84;;;-0.39;90.80
80648;BME280;70012;0.000;0.000;2023-12-07T02:36:27;101079.63;;;-0.53;90.32
80648;BME280;70012;0.000;0.000;2023-12-07T02:38:59;101063.78;;;-0.65;90.40
80648;BME280;70012;0.000;0.000;2023-12-07T02:41:30;101077.91;;;-0.62;90.24
80648;BME280;70012;0.000;0.000;2023-12-07T02:43:58;101061.06;;;-0.73;90.22
80648;BME280;70012;0.000;0.000;2023-12-07T02:46:25;101074.88;;;-0.68;90.00
80648;BME280;70012;0.000;0.000;2023-12-07T02:48:52;101050.44;;;-0.83;90.64
80648;BME280;70012;0.000;0.000;2023-12-07T02:51:21;101051.25;;;-0.82;90.72
80648;BME280;70012;0.000;0.000;2023-12-07T02:53:48;101086.31;;;-0.66;90.55
80648;BME280;70012;0.000;0.000;2023-12-07T02:56:14;101073.19;;;-0.69;90.68
80648;BME280;70012;0.000;0.000;2023-12-07T02:58:41;101042.03;;;-0.88;90.63
80648;BME280;70012;0.000;0.000;2023-12-07T03:01:08;101040.50;;;-0.90;90.54
80648;BME280;70012;0.000;0.000;2023-12-07T03:03:37;101047.53;;;-0.89;90.74
80648;BME280;70012;0.000;0.000;2023-12-07T03:06:05;101069.81;;;-0.71;90.75
80648;BME280;70012;0.000;0.000;2023-12-07T03:08:33;101065.06;;;-0.77;90.78
80648;BME280;70012;0.000;0.000;2023-12-07T03:11:00;101069.44;;;-0.76;90.86
80648;BME280;70012;0.000;0.000;2023-12-07T03:13:27;101069.78;;;-0.79;90.64
80648;BME280;70012;0.000;0.000;2023-12-07T03:15:54;101068.44;;;-0.75;90.46
80648;BME280;70012;0.000;0.000;2023-12-07T03:18:21;101056.97;;;-0.85;90.88
80648;BME280;70012;0.000;0.000;2023-12-07T03:21:02;101065.03;;;-0.85;90.94
80648;BME280;70012;0.000;0.000;2023-12-07T03:23:30;101067.75;;;-0.77;90.96
80648;BME280;70012;0.000;0.000;2023-12-07T03:25:56;101066.09;;;-0.78;91.60
80648;BME280;70012;0.000;0.000;2023-12-07T03:28:23;101062.38;;;-0.77;91.87
80648;BME280;70012;0.000;0.000;2023-12-07T03:30:51;101069.13;;;-0.73;91.30
80648;BME280;70012;0.000;0.000;2023-12-07T03:33:18;101056.00;;;-0.76;91.64
80648;BME280;70012;0.000;0.000;2023-12-07T03:35:45;101060.72;;;-0.78;91.88
80648;BME280;70012;0.000;0.000;2023-12-07T03:38:12;101077.56;;;-0.68;92.48
80648;BME280;70012;0.000;0.000;2023-12-07T03:40:38;101065.44;;;-0.72;92.53
80648;BME280;70012;0.000;0.000;2023-12-07T03:43:05;101060.72;;;-0.70;92.52
80648;BME280;70012;0.000;0.000;2023-12-07T03:45:32;101073.03;;;-0.67;92.31
80648;BME280;70012;0.000;0.000;2023-12-07T03:47:59;101058.03;;;-0.70;92.55
80648;BME280;70012;0.000;0.000;2023-12-07T03:50:26;101071.88;;;-0.65;93.23
80648;BME280;70012;0.000;0.000;2023-12-07T03:52:53;101067.31;;;-0.64;92.90
80648;BME280;70012;0.000;0.000;2023-12-07T03:55:19;101062.75;;;-0.63;93.29
80648;BME280;70012;0.000;0.000;2023-12-07T03:57:46;101063.16;;;-0.58;93.42
80648;BME280;70012;0.000;0.000;2023-12-07T04:00:13;101055.38;;;-0.61;93.23
80648;BME280;70012;0.000;0.000;2023-12-07T04:02:41;101056.75;;;-0.57;93.63
80648;BME280;70012;0.000;0.000;2023-12-07T04:05:08;101067.69;;;-0.51;93.38
80648;BME280;70012;0.000;0.000;2023-12-07T04:07:37;101073.59;;;-0.47;93.06
80648;BME280;70012;0.000;0.000;2023-12-07T04:10:05;101071.59;;;-0.45;92.91
80648;BME280;70012;0.000;0.000;2023-12-07T04:12:32;101049.56;;;-0.49;92.50
80648;BME280;70012;0.000;0.000;2023-12-07T04:14:59;101069.09;;;-0.38;92.54
80648;BME280;70012;0.000;0.000;2023-12-07T04:17:28;101065.22;;;-0.36;92.34
80648;BME280;70012;0.000;0.000;2023-12-07T04:19:55;101031.22;;;-0.53;92.26
80648;BME280;70012;0.000;0.000;2023-12-07T04:22:23;101047.69;;;-0.48;92.38
80648;BME280;70012;0.000;0.000;2023-12-07T04:24:50;101047.53;;;-0.46;91.89
80648;BME280;70012;0.000;0.000;2023-12-07T04:27:17;101017.56;;;-0.68;91.80
80648;BME280;70012;0.000;0.000;2023-12-07T04:29:43;101068.56;;;-0.42;92.03
80648;BME280;70012;0.000;0.000;2023-12-07T04:32:11;101063.66;;;-0.46;91.67
80648;BME280;70012;0.000;0.000;2023-12-07T04:34:37;101054.41;;;-0.52;91.73
80648;BME280;70012;0.000;0.000;2023-12-07T04:37:04;101050.69;;;-0.59;92.11
80648;BME280;70012;0.000;0.000;2023-12-07T04:39:31;101037.03;;;-0.66;92.38
80648;BME280;70012;0.000;0.000;2023-12-07T04:41:58;101057.59;;;-0.57;92.49
80648;BME280;70012;0.000;0.000;2023-12-07T04:44:26;101049.50;;;-0.65;93.09
80648;BME280;70012;0.000;0.000;2023-12-07T04:46:53;101037.81;;;-0.82;92.74
80648;BME280;70012;0.000;0.000;2023-12-07T04:49:20;101090.06;;;-0.50;92.90
80648;BME280;70012;0.000;0.000;2023-12-07T04:51:47;101084.31;;;-0.55;92.64
80648;BME280;70012;0.000;0.000;2023-12-07T04:54:14;101047.63;;;-0.73;92.14
80648;BME280;70012;0.000;0.000;2023-12-07T04:56:45;101089.75;;;-0.47;91.70
80648;BME280;70012;0.000;0.000;2023-12-07T04:59:12;101083.31;;;-0.54;91.93
80648;BME280;70012;0.000;0.000;2023-12-07T05:01:39;101086.00;;;-0.54;91.87
80648;BME280;70012;0.000;0.000;2023-12-07T05:04:06;101091.09;;;-0.51;91.81
80648;BME280;70012;0.000;0.000;2023-12-07T05:06:34;101093.44;;;-0.48;92.13
80648;BME280;70012;0.000;0.000;2023-12-07T05:09:00;101098.50;;;-0.45;91.84
80648;BME280;70012;0.000;0.000;2023-12-07T05:11:27;101102.50;;;-0.49;92.38
80648;BME280;70012;0.000;0.000;2023-12-07T05:13:56;101087.88;;;-0.55;91.88
80648;BME280;70012;0.000;0.000;2023-12-07T05:16:25;101101.34;;;-0.46;92.39
80648;BME280;70012;0.000;0.000;2023-12-07T05:18:52;101067.47;;;-0.66;92.04
80648;BME280;70012;0.000;0.000;2023-12-07T05:21:18;101083.28;;;-0.62;92.39
80648;BME280;70012;0.000;0.000;2023-12-07T05:23:47;101066.28;;;-0.71;91.88
80648;BME280;70012;0.000;0.000;2023-12-07T05:26:14;101048.25;;;-0.79;91.56
80648;BME280;70012;0.000;0.000;2023-12-07T05:28:41;101070.47;;;-0.69;91.37
80648;BME280;70012;0.000;0.000;2023-12-07T05:31:08;101061.38;;;-0.76;91.76
80648;BME280;70012;0.000;0.000;2023-12-07T05:33:35;101096.94;;;-0.56;91.58
80648;BME280;70012;0.000;0.000;2023-12-07T05:36:02;101077.88;;;-0.71;91.72
80648;BME280;70012;0.000;0.000;2023-12-07T05:38:32;101092.84;;;-0.68;91.71
80648;BME280;70012;0.000;0.000;2023-12-07T05:40:59;101091.59;;;-0.82;91.94
80648;BME280;70012;0.000;0.000;2023-12-07T05:43:25;101105.41;;;-0.77;91.79
80648;BME280;70012;0.000;0.000;2023-12-07T05:45:53;101093.41;;;-0.91;91.61
80648;BME280;70012;0.000;0.000;2023-12-07T05:48:20;101090.19;;;-0.94;91.30
80648;BME280;70012;0.000;0.000;2023-12-07T05:50:47;101130.28;;;-0.75;91.67
80648;BME280;70012;0.000;0.000;2023-12-07T05:53:15;101133.97;;;-0.76;92.07
80648;BME280;70012;0.000;0.000;2023-12-07T05:55:41;101123.88;;;-0.82;91.63
80648;BME280;70012;0.000;0.000;2023-12-07T05:58:08;101121.34;;;-0.84;91.54
80648;BME280;70012;0.000;0.000;2023-12-07T06:00:35;101117.13;;;-0.86;90.89
80648;BME280;70012;0.000;0.000;2023-12-07T06:03:02;101117.13;;;-0.86;91.42
80648;BME280;70012;0.000;0.000;2023-12-07T06:05:29;101121.34;;;-0.84;91.57
80648;BME280;70012;0.000;0.000;2023-12-07T06:07:56;101108.84;;;-0.93;91.69
80648;BME280;70012;0.000;0.000;2023-12-07T06:10:22;101115.13;;;-0.84;91.81
80648;BME280;70012;0.000;0.000;2023-12-07T06:12:49;101114.44;;;-0.86;91.64
80648;BME280;70012;0.000;0.000;2023-12-07T06:15:16;101109.91;;;-0.86;91.97
80648;BME280;70012;0.000;0.000;2023-12-07T06:17:43;101105.31;;;-0.93;91.74
80648;BME280;70012;0.000;0.000;2023-12-07T06:20:18;101107.00;;;-0.92;91.63
80648;BME280;70012;0.000;0.000;2023-12-07T06:22:45;101053.91;;;-1.25;91.68
80648;BME280;70012;0.000;0.000;2023-12-07T06:25:12;101083.72;;;-1.10;91.85
80648;BME280;70012;0.000;0.000;2023-12-07T06:27:38;101060.31;;;-1.18;92.06
80648;BME280;70012;0.000;0.000;2023-12-07T06:30:05;101098.59;;;-0.98;92.02
80648;BME280;70012;0.000;0.000;2023-12-07T06:32:32;101071.94;;;-1.17;92.13
80648;BME280;70012;0.000;0.000;2023-12-07T06:35:00;101102.75;;;-1.03;91.89
80648;BME280;70012;0.000;0.000;2023-12-07T06:37:27;101055.53;;;-1.32;91.51
80648;BME280;70012;0.000;0.000;2023-12-07T06:39:54;101070.88;;;-1.24;91.78
80648;BME280;70012;0.000;0.000;2023-12-07T06:42:21;101078.25;;;-1.26;91.58
80648;BME280;70012;0.000;0.000;2023-12-07T06:44:48;101061.06;;;-1.34;91.66
80648;BME280;70012;0.000;0.000;2023-12-07T06:47:17;101067.50;;;-1.26;91.53
80648;BME280;70012;0.000;0.000;2023-12-07T06:49:44;101056.63;;;-1.43;91.79
80648;BME280;70012;0.000;0.000;2023-12-07T06:52:18;101085.31;;;-1.25;91.83
80648;BME280;70012;0.000;0.000;2023-12-07T06:54:45;101067.38;;;-1.43;91.94
80648;BME280;70012;0.000;0.000;2023-12-07T06:57:13;101072.91;;;-1.45;91.49
80648;BME280;70012;0.000;0.000;2023-12-07T06:59:40;101066.00;;;-1.47;91.59
80648;BME280;70012;0.000;0.000;2023-12-07T07:02:07;101078.97;;;-1.42;91.94
80648;BME280;70012;0.000;0.000;2023-12-07T07:04:34;101058.22;;;-1.58;91.97
80648;BME280;70012;0.000;0.000;2023-12-07T07:07:01;101079.81;;;-1.42;91.66
80648;BME280;70012;0.000;0.000;2023-12-07T07:09:28;101075.28;;;-1.41;91.80
80648;BME280;70012;0.000;0.000;2023-12-07T07:11:54;101086.25;;;-1.35;91.65
80648;BME280;70012;0.000;0.000;2023-12-07T07:14:21;101091.63;;;-1.35;91.72
80648;BME280;70012;0.000;0.000;2023-12-07T07:16:48;101085.25;;;-1.34;91.68
80648;BME280;70012;0.000;0.000;2023-12-07T07:19:15;101078.66;;;-1.39;91.42
80648;BME280;70012;0.000;0.000;2023-12-07T07:21:43;101081.19;;;-1.38;91.70
80648;BME280;70012;0.000;0.000;2023-12-07T07:24:10;101087.09;;;-1.34;91.95
80648;BME280;70012;0.000;0.000;2023-12-07T07:26:37;101084.03;;;-1.39;91.36
80648;BME280;70012;0.000;0.000;2023-12-07T07:29:05;101089.41;;;-1.39;91.40
80648;BME280;70012;0.000;0.000;2023-12-07T07:31:32;101081.81;;;-1.44;90.94
80648;BME280;70012;0.000;0.000;2023-12-07T07:33:59;101094.22;;;-1.43;91.21
80648;BME280;70012;0.000;0.000;2023-12-07T07:36:27;101087.50;;;-1.47;91.14
80648;BME280;70012;0.000;0.000;2023-12-07T07:38:54;101087.78;;;-1.50;91.17
80648;BME280;70012;0.000;0.000;2023-12-07T07:41:27;101071.94;;;-1.62;91.19
80648;BME280;70012;0.000;0.000;2023-12-07T07:43:54;101064.13;;;-1.73;91.16
80648;BME280;70012;0.000;0.000;2023-12-07T07:46:21;101075.25;;;-1.68;90.77
80648;BME280;70012;0.000;0.000;2023-12-07T07:48:49;101073.56;;;-1.69;90.77
80648;BME280;70012;0.000;0.000;2023-12-07T07:51:16;101081.59;;;-1.69;90.58
80648;BME280;70012;0.000;0.000;2023-12-07T07:53:43;101073.88;;;-1.72;91.03
80648;BME280;70012;0.000;0.000;2023-12-07T07:56:10;101046.34;;;-1.92;91.07
80648;BME280;70012;0.000;0.000;2023-12-07T07:58:38;101042.47;;;-1.98;91.19
80648;BME280;70012;0.000;0.000;2023-12-07T08:01:06;101071.81;;;-1.78;91.14
80648;BME280;70012;0.000;0.000;2023-12-07T08:03:33;101052.56;;;-1.91;91.03
80648;BME280;70012;0.000;0.000;2023-12-07T08:06:00;101063.06;;;-1.80;90.98
80648;BME280;70012;0.000;0.000;2023-12-07T08:08:28;101070.78;;;-1.77;91.58
80648;BME280;70012;0.000;0.000;2023-12-07T08:10:54;101077.56;;;-1.73;91.62
80648;BME280;70012;0.000;0.000;2023-12-07T08:13:23;101093.75;;;-1.65;91.40
80648;BME280;70012;0.000;0.000;2023-12-07T08:15:50;101098.25;;;-1.65;91.40
80648;BME280;70012;0.000;0.000;2023-12-07T08:18:19;101093.66;;;-1.73;91.15
80648;BME280;70012;0.000;0.000;2023-12-07T08:20:46;101080.53;;;-1.76;91.95
80648;BME280;70012;0.000;0.000;2023-12-07T08:23:13;101086.91;;;-1.77;91.39
80648;BME280;70012;0.000;0.000;2023-12-07T08:25:42;101083.22;;;-1.76;91.91
80648;BME280;70012;0.000;0.000;2023-12-07T08:28:13;101082.94;;;-1.73;91.53
80648;BME280;70012;0.000;0.000;2023-12-07T08:30:40;101102.63;;;-1.64;91.19
80648;BME280;70012;0.000;0.000;2023-12-07T08:33:09;101079.88;;;-1.78;91.70
80648;BME280;70012;0.000;0.000;2023-12-07T08:35:36;101091.69;;;-1.71;91.72
80648;BME280;70012;0.000;0.000;2023-12-07T08:38:02;101106.63;;;-1.68;91.51
80648;BME280;70012;0.000;0.000;2023-12-07T08:40:33;101114.19;;;-1.64;91.69
80648;BME280;70012;0.000;0.000;2023-12-07T08:43:00;101102.41;;;-1.71;91.75
80648;BME280;70012;0.000;0.000;2023-12-07T08:45:30;101113.91;;;-1.61;91.52
80648;BME280;70012;0.000;0.000;2023-12-07T08:47:59;101108.53;;;-1.61;91.52
80648;BME280;70012;0.000;0.000;2023-12-07T08:50:25;101096.97;;;-1.61;91.91
80648;BME280;70012;0.000;0.000;2023-12-07T08:52:52;101091.72;;;-1.63;92.38
80648;BME280;70012;0.000;0.000;2023-12-07T08:55:27;101095.81;;;-1.58;91.73
80648;BME280;70012;0.000;0.000;2023-12-07T08:57:55;101104.25;;;-1.53;92.18
80648;BME280;70012;0.000;0.000;2023-12-07T09:00:21;101103.69;;;-1.57;92.13
80648;BME280;70012;0.000;0.000;2023-12-07T09:02:50;101097.19;;;-1.54;91.70
80648;BME280;70012;0.000;0.000;2023-12-07T09:05:18;101099.69;;;-1.53;91.49
80648;BME280;70012;0.000;0.000;2023-12-07T09:07:45;101099.25;;;-1.48;91.51
80648;BME280;70012;0.000;0.000;2023-12-07T09:10:12;101090.88;;;-1.45;91.58
80648;BME280;70012;0.000;0.000;2023-12-07T09:12:40;101103.81;;;-1.40;91.51
80648;BME280;70012;0.000;0.000;2023-12-07T09:15:07;101106.38;;;-1.39;91.30
80648;BME280;70012;0.000;0.000;2023-12-07T09:17:35;101107.03;;;-1.37;91.51
80648;BME280;70012;0.000;0.000;2023-12-07T09:20:02;101101.38;;;-1.34;91.55
80648;BME280;70012;0.000;0.000;2023-12-07T09:22:30;101103.75;;;-1.31;91.80
80648;BME280;70012;0.000;0.000;2023-12-07T09:25:04;101102.59;;;-1.28;91.50
80648;BME280;70012;0.000;0.000;2023-12-07T09:27:31;101106.81;;;-1.25;91.59
80648;BME280;70012;0.000;0.000;2023-12-07T09:30:00;101091.31;;;-1.32;91.56
80648;BME280;70012;0.000;0.000;2023-12-07T09:32:27;101093.38;;;-1.25;92.10
80648;BME280;70012;0.000;0.000;2023-12-07T09:35:03;101089.00;;;-1.26;91.50
80648;BME280;70012;0.000;0.000;2023-12-07T09:37:30;101092.56;;;-1.18;91.27
80648;BME280;70012;0.000;0.000;2023-12-07T09:39:57;101076.38;;;-1.26;92.17
80648;BME280;70012;0.000;0.000;2023-12-07T09:42:24;101091.16;;;-1.04;93.16
80648;BME280;70012;0.000;0.000;2023-12-07T09:45:01;101095.25;;;-0.91;93.92
80648;BME280;70012;0.000;0.000;2023-12-07T09:47:30;101077.16;;;-0.81;93.23
80648;BME280;70012;0.000;0.000;2023-12-07T09:50:07;101068.91;;;-0.79;93.39
80648;BME280;70012;0.000;0.000;2023-12-07T09:52:35;101098.06;;;-0.67;92.17
80648;BME280;70012;0.000;0.000;2023-12-07T09:55:03;101085.16;;;-0.63;92.83
80648;BME280;70012;0.000;0.000;2023-12-07T09:57:32;101097.16;;;-0.41;92.55
80648;BME280;70012;0.000;0.000;2023-12-07T10:00:00;101084.75;;;-0.34;92.23
80648;BME280;70012;0.000;0.000;2023-12-07T10:02:28;101093.50;;;-0.31;91.98
80648;BME280;70012;0.000;0.000;2023-12-07T10:05:08;101078.19;;;-0.31;91.33
80648;BME280;70012;0.000;0.000;2023-12-07T10:07:41;101067.09;;;-0.28;91.44
80648;BME280;70012;0.000;0.000;2023-12-07T10:10:09;101065.59;;;-0.22;91.18
80648;BME280;70012;0.000;0.000;2023-12-07T10:15:16;101070.81;;;-0.12;90.95
80648;BME280;70012;0.000;0.000;2023-12-07T10:17:45;101043.41;;;-0.16;90.94
80648;BME280;70012;0.000;0.000;2023-12-07T10:20:16;101047.28;;;-0.10;90.69
80648;BME280;70012;0.000;0.000;2023-12-07T10:22:44;101044.06;;;-0.14;90.62
80648;BME280;70012;0.000;0.000;2023-12-07T10:25:12;101042.41;;;-0.07;90.76
80648;BME280;70012;0.000;0.000;2023-12-07T10:27:42;101027.25;;;-0.16;90.67
80648;BME280;70012;0.000;0.000;2023-12-07T10:30:12;101025.06;;;-0.12;90.59
80648;BME280;70012;0.000;0.000;2023-12-07T10:32:42;101023.22;;;0.05;90.48
80648;BME280;70012;0.000;0.000;2023-12-07T10:35:10;101051.88;;;0.22;90.56
80648;BME280;70012;0.000;0.000;2023-12-07T10:37:37;101025.59;;;0.16;90.27
80648;BME280;70012;0.000;0.000;2023-12-07T10:40:05;101033.00;;;0.30;89.57
80648;BME280;70012;0.000;0.000;2023-12-07T10:42:33;101034.69;;;0.40;90.11
80648;BME280;70012;0.000;0.000;2023-12-07T10:45:05;101019.19;;;0.42;89.77
80648;BME280;70012;0.000;0.000;2023-12-07T10:47:37;101012.63;;;0.44;89.78
80648;BME280;70012;0.000;0.000;2023-12-07T10:50:06;101001.16;;;0.59;88.66
80648;BME280;70012;0.000;0.000;2023-12-07T10:52:45;100996.22;;;0.71;87.78
80648;BME280;70012;0.000;0.000;2023-12-07T10:55:20;100997.56;;;0.75;87.56
80648;BME280;70012;0.000;0.000;2023-12-07T10:57:52;100996.88;;;0.81;87.33
80648;BME280;70012;0.000;0.000;2023-12-07T11:00:21;100986.78;;;0.83;86.94
80648;BME280;70012;0.000;0.000;2023-12-07T11:03:10;100978.69;;;0.83;86.57
80648;BME280;70012;0.000;0.000;2023-12-07T11:05:39;100960.84;;;0.74;86.41
80648;BME280;70012;0.000;0.000;2023-12-07T11:08:09;100943.66;;;0.75;85.52
80648;BME280;70012;0.000;0.000;2023-12-07T11:10:47;100941.59;;;0.85;85.27
80648;BME280;70012;0.000;0.000;2023-12-07T11:13:31;100927.50;;;0.75;85.34
80648;BME280;70012;0.000;0.000;2023-12-07T11:15:59;100966.13;;;0.99;86.11
80648;BME280;70012;0.000;0.000;2023-12-07T11:18:28;100930.50;;;0.80;86.39
80648;BME280;70012;0.000;0.000;2023-12-07T11:20:56;100946.78;;;0.95;86.37
80648;BME280;70012;0.000;0.000;2023-12-07T11:23:23;100927.78;;;0.88;86.40
80648;BME280;70012;0.000;0.000;2023-12-07T11:25:52;100951.94;;;1.05;86.98
80648;BME280;70012;0.000;0.000;2023-12-07T11:28:34;100931.75;;;1.01;87.46
80648;BME280;70012;0.000;0.000;2023-12-07T11:31:01;100936.13;;;1.02;87.25
80648;BME280;70012;0.000;0.000;2023-12-07T11:33:29;100926.97;;;1.11;86.91
80648;BME280;70012;0.000;0.000;2023-12-07T11:36:03;100917.38;;;1.08;85.86
80648;BME280;70012;0.000;0.000;2023-12-07T11:38:33;100915.84;;;1.14;85.92
80648;BME280;70012;0.000;0.000;2023-12-07T11:41:02;100910.94;;;1.18;85.96
80648;BME280;70012;0.000;0.000;2023-12-07T11:45:59;100912.72;;;1.25;85.50
80648;BME280;70012;0.000;0.000;2023-12-07T11:48:26;100919.28;;;1.31;85.10
80648;BME280;70012;0.000;0.000;2023-12-07T11:50:57;100912.03;;;1.32;84.96
80648;BME280;70012;0.000;0.000;2023-12-07T11:53:27;100890.84;;;1.20;85.11
80648;BME280;70012;0.000;0.000;2023-12-07T11:55:58;100871.00;;;1.13;84.75
80648;BME280;70012;0.000;0.000;2023-12-07T11:58:26;100887.81;;;1.23;85.11
80648;BME280;70012;0.000;0.000;2023-12-07T12:00:53;100876.34;;;1.21;84.87
80648;BME280;70012;0.000;0.000;2023-12-07T12:03:20;100856.50;;;1.14;85.38
80648;BME280;70012;0.000;0.000;2023-12-07T12:05:48;100875.34;;;1.22;85.84
80648;BME280;70012;0.000;0.000;2023-12-07T12:08:17;100876.94;;;1.32;85.21
80648;BME280;70012;0.000;0.000;2023-12-07T12:10:45;100867.16;;;1.31;84.74
80648;BME280;70012;0.000;0.000;2023-12-07T12:13:12;100880.44;;;1.40;84.75
80648;BME280;70012;0.000;0.000;2023-12-07T12:15:39;100870.53;;;1.33;85.00
80648;BME280;70012;0.000;0.000;2023-12-07T12:18:07;100859.41;;;1.36;83.85
80648;BME280;70012;0.000;0.000;2023-12-07T12:20:35;100864.06;;;1.42;84.16
80648;BME280;70012;0.000;0.000;2023-12-07T12:23:03;100880.22;;;1.50;84.71
80648;BME280;70012;0.000;0.000;2023-12-07T12:25:31;100881.81;;;1.59;83.02
80648;BME280;70012;0.000;0.000;2023-12-07T12:28:01;100852.59;;;1.40;83.73
80648;BME280;70012;0.000;0.000;2023-12-07T12:30:30;100876.06;;;1.63;83.47
80648;BME280;70012;0.000;0.000;2023-12-07T12:32:57;100881.06;;;1.66;82.46
80648;BME280;70012;0.000;0.000;2023-12-07T12:35:26;100883.03;;;1.72;83.07
80648;BME280;70012;0.000;0.000;2023-12-07T12:37:53;100859.88;;;1.63;82.73
80648;BME280;70012;0.000;0.000;2023-12-07T12:40:22;100869.75;;;1.70;82.94
80648;BME280;70012;0.000;0.000;2023-12-07T12:42:51;100849.06;;;1.63;82.83
80648;BME280;70012;0.000;0.000;2023-12-07T12:45:22;100868.00;;;1.78;82.48
80648;BME280;70012;0.000;0.000;2023-12-07T12:47:49;100852.13;;;1.74;81.84
80648;BME280;70012;0.000;0.000;2023-12-07T12:50:37;100850.97;;;1.77;81.53
80648;BME280;70012;0.000;0.000;2023-12-07T12:53:05;100827.56;;;1.69;82.46
80648;BME280;70012;0.000;0.000;2023-12-07T12:55:35;100824.66;;;1.71;83.20
80648;BME280;70012;0.000;0.000;2023-12-07T12:58:02;100820.94;;;1.72;82.28
80648;BME280;70012;0.000;0.000;2023-12-07T13:00:31;100826.81;;;1.75;82.22
80648;BME280;70012;0.000;0.000;2023-12-07T13:03:05;100823.09;;;1.76;82.62
80648;BME280;70012;0.000;0.000;2023-12-07T13:05:35;100815.56;;;1.72;82.54
80648;BME280;70012;0.000;0.000;2023-12-07T13:08:06;100810.53;;;1.69;82.80
80648;BME280;70012;0.000;0.000;2023-12-07T13:10:40;100826.34;;;1.72;82.72
80648;BME280;70012;0.000;0.000;2023-12-07T13:13:08;100810.53;;;1.69;82.00
80648;BME280;70012;0.000;0.000;2023-12-07T13:15:35;100810.53;;;1.69;82.66